createdAt,value
2018-04-08T00:02:02.924Z,64.00
2018-04-08T00:04:30.494Z,63.70
2018-04-08T00:06:58.943Z,63.80
2018-04-08T00:09:26.484Z,64.20
2018-04-08T00:11:54.046Z,64.40
2018-04-08T00:14:21.586Z,64.50
2018-04-08T00:16:49.144Z,65.00
2018-04-08T00:19:16.772Z,65.00
2018-04-08T00:21:44.344Z,65.20
2018-04-08T00:24:11.879Z,65.10
2018-04-08T00:26:40.212Z,65.30
2018-04-08T00:29:07.757Z,65.20
2018-04-08T00:31:35.314Z,65.10
2018-04-08T00:34:02.873Z,65.20
2018-04-08T00:36:30.443Z,65.30
2018-04-08T00:38:58.013Z,65.50
2018-04-08T00:41:25.565Z,65.70
2018-04-08T00:43:53.106Z,65.90
2018-04-08T00:46:20.664Z,65.60
2018-04-08T00:48:48.201Z,65.70
2018-04-08T00:51:15.756Z,65.70
2018-04-08T00:53:43.305Z,65.70
2018-04-08T00:56:10.872Z,65.70
2018-04-08T00:58:39.217Z,65.90
2018-04-08T01:01:07.761Z,66.00
2018-04-08T01:03:35.305Z,66.10
2018-04-08T01:06:02.862Z,66.20
2018-04-08T01:08:30.392Z,66.60
2018-04-08T01:10:57.950Z,66.80
2018-04-08T01:13:25.516Z,66.80
2018-04-08T01:15:53.087Z,66.50
2018-04-08T01:18:20.632Z,66.80
2018-04-08T01:20:48.189Z,68.20
2018-04-08T01:23:15.732Z,67.40
2018-04-08T01:25:43.300Z,67.40
2018-04-08T01:28:10.821Z,67.60
2018-04-08T01:30:38.396Z,67.90
2018-04-08T01:33:05.941Z,68.10
2018-04-08T01:35:33.531Z,68.10
2018-04-08T01:38:01.072Z,68.10
2018-04-08T01:40:28.627Z,68.10
2018-04-08T01:42:56.197Z,68.30
2018-04-08T01:45:23.864Z,68.40
2018-04-08T01:47:51.412Z,68.70
2018-04-08T01:50:18.963Z,68.80
2018-04-08T01:52:46.520Z,68.80
2018-04-08T01:55:14.074Z,68.60
2018-04-08T01:57:42.396Z,68.50
2018-04-08T02:00:09.948Z,68.50
2018-04-08T02:02:37.507Z,68.50
2018-04-08T02:05:05.037Z,68.50
2018-04-08T02:07:33.359Z,68.00
2018-04-08T02:10:00.907Z,67.90
2018-04-08T02:12:28.463Z,68.00
2018-04-08T02:14:56.036Z,67.50
2018-04-08T02:17:23.595Z,67.70
2018-04-08T02:19:51.140Z,67.50
2018-04-08T02:22:18.700Z,67.40
2018-04-08T02:24:46.266Z,67.50
2018-04-08T02:27:13.826Z,67.70
2018-04-08T02:29:41.385Z,67.50
2018-04-08T02:32:08.948Z,67.40
2018-04-08T02:34:36.507Z,67.50
2018-04-08T02:37:04.049Z,67.50
2018-04-08T02:39:31.621Z,67.90
2018-04-08T02:41:59.168Z,68.20
2018-04-08T02:44:26.739Z,68.40
2018-04-08T02:46:54.297Z,69.00
2018-04-08T02:49:21.862Z,69.40
2018-04-08T02:51:49.405Z,70.00
2018-04-08T02:54:16.979Z,70.50
2018-04-08T02:56:44.530Z,70.90
2018-04-08T02:59:12.094Z,71.30
2018-04-08T03:01:39.671Z,71.60
2018-04-08T03:04:07.256Z,71.80
2018-04-08T03:06:34.809Z,72.10
2018-04-08T03:09:02.374Z,72.20
2018-04-08T03:11:29.943Z,72.30
2018-04-08T03:13:57.512Z,72.60
2018-04-08T03:16:25.069Z,72.60
2018-04-08T03:18:52.632Z,72.60
2018-04-08T03:21:20.178Z,72.30
2018-04-08T03:23:47.771Z,72.50
2018-04-08T03:26:16.082Z,72.90
2018-04-08T03:28:43.653Z,72.80
2018-04-08T03:31:11.226Z,73.10
2018-04-08T03:33:38.808Z,73.30
2018-04-08T03:36:06.386Z,73.50
2018-04-08T03:38:34.745Z,74.50
2018-04-08T03:41:02.375Z,74.50
2018-04-08T03:43:29.919Z,74.60
2018-04-08T03:45:57.474Z,74.40
2018-04-08T03:48:25.022Z,73.40
2018-04-08T03:50:52.636Z,74.50
2018-04-08T03:53:20.171Z,74.20
2018-04-08T03:55:47.751Z,74.00
2018-04-08T03:58:15.292Z,73.80
2018-04-08T04:00:42.851Z,73.80
2018-04-08T04:03:10.399Z,73.80
2018-04-08T04:05:37.981Z,73.70
2018-04-08T04:08:05.530Z,73.40
2018-04-08T04:10:33.084Z,73.40
2018-04-08T04:13:00.646Z,73.00
2018-04-08T04:15:28.229Z,72.90
2018-04-08T04:17:55.768Z,73.70
2018-04-08T04:20:35.098Z,73.10
2018-04-08T04:23:14.590Z,73.30
2018-04-08T04:25:53.932Z,73.40
2018-04-08T04:28:22.430Z,73.40
2018-04-08T04:30:50.009Z,73.00
2018-04-08T04:33:17.558Z,73.00
2018-04-08T04:35:45.854Z,73.00
2018-04-08T04:38:13.404Z,73.00
2018-04-08T04:40:40.954Z,72.70
2018-04-08T04:43:09.291Z,72.80
2018-04-08T04:45:37.390Z,72.70
2018-04-08T04:48:05.732Z,72.70
2018-04-08T04:50:33.341Z,72.60
2018-04-08T04:53:01.695Z,71.40
2018-04-08T04:55:30.059Z,71.30
2018-04-08T04:57:57.633Z,72.20
2018-04-08T05:00:25.197Z,70.80
2018-04-08T05:02:52.748Z,70.80
2018-04-08T05:05:20.297Z,70.50
2018-04-08T05:07:47.866Z,69.80
2018-04-08T05:10:16.171Z,67.20
2018-04-08T05:12:44.510Z,66.20
2018-04-08T05:15:12.060Z,66.00
2018-04-08T05:17:39.633Z,64.90
2018-04-08T05:20:07.194Z,64.20
2018-04-08T05:22:34.757Z,63.20
2018-04-08T05:25:02.397Z,62.50
2018-04-08T05:27:29.983Z,61.80
2018-04-08T05:29:57.525Z,61.90
2018-04-08T05:32:25.086Z,61.40
2018-04-08T05:34:52.668Z,61.00
2018-04-08T05:37:20.207Z,60.40
2018-04-08T05:39:47.797Z,59.50
2018-04-08T05:42:15.334Z,58.80
2018-04-08T05:44:42.897Z,58.30
2018-04-08T05:47:10.446Z,58.00
2018-04-08T05:49:38.054Z,57.80
2018-04-08T05:52:05.594Z,57.70
2018-04-08T05:54:33.205Z,57.50
2018-04-08T05:57:00.743Z,57.60
2018-04-08T05:59:29.084Z,55.40
2018-04-08T06:01:56.680Z,55.30
2018-04-08T06:04:25.085Z,54.00
2018-04-08T06:06:52.704Z,53.90
2018-04-08T06:09:20.299Z,53.50
2018-04-08T06:11:47.847Z,52.60
2018-04-08T06:14:16.182Z,52.70
2018-04-08T06:16:43.760Z,52.80
2018-04-08T06:19:11.339Z,53.10
2018-04-08T06:21:39.640Z,52.10
2018-04-08T06:24:07.214Z,52.00
2018-04-08T06:26:34.809Z,51.90
2018-04-08T06:29:02.386Z,51.50
2018-04-08T06:31:29.930Z,51.20
2018-04-08T06:33:57.499Z,51.00
2018-04-08T06:36:25.038Z,51.20
2018-04-08T06:38:52.613Z,51.00
2018-04-08T06:41:23.281Z,50.30
2018-04-08T06:43:50.881Z,51.00
2018-04-08T06:46:18.452Z,51.10
2018-04-08T06:48:46.002Z,50.40
2018-04-08T06:51:13.567Z,50.60
2018-04-08T06:53:41.125Z,50.40
2018-04-08T06:56:08.703Z,50.10
2018-04-08T06:58:36.272Z,50.10
2018-04-08T07:01:03.816Z,48.90
2018-04-08T07:03:31.378Z,48.00
2018-04-08T07:05:58.970Z,49.00
2018-04-08T07:08:26.548Z,49.20
2018-04-08T07:10:54.871Z,48.40
2018-04-08T07:13:22.419Z,48.40
2018-04-08T07:15:50.003Z,47.90
2018-04-08T07:18:17.706Z,46.70
2018-04-08T07:20:45.218Z,46.10
2018-04-08T07:23:12.765Z,45.60
2018-04-08T07:25:40.353Z,46.70
2018-04-08T07:28:07.900Z,47.60
2018-04-08T07:30:35.473Z,46.20
2018-04-08T07:33:03.022Z,46.60
2018-04-08T07:35:30.583Z,47.00
2018-04-08T07:37:58.169Z,45.70
2018-04-08T07:40:25.737Z,46.80
2018-04-08T07:42:53.263Z,46.00
2018-04-08T07:45:20.839Z,47.00
2018-04-08T07:47:48.381Z,45.20
2018-04-08T07:50:15.940Z,45.50
2018-04-08T07:52:43.509Z,46.00
2018-04-08T07:55:11.126Z,45.50
2018-04-08T07:57:38.707Z,45.90
2018-04-08T08:00:06.273Z,47.10
2018-04-08T08:02:33.822Z,47.00
2018-04-08T08:05:01.397Z,45.90
2018-04-08T08:07:28.933Z,45.10
2018-04-08T08:09:56.498Z,44.10
2018-04-08T08:12:24.053Z,43.80
2018-04-08T08:14:51.663Z,44.10
2018-04-08T08:17:19.211Z,44.10
2018-04-08T08:19:46.758Z,43.70
2018-04-08T08:22:14.329Z,43.80
2018-04-08T08:24:41.878Z,44.40
2018-04-08T08:27:09.490Z,44.60
2018-04-08T08:29:37.037Z,44.30
2018-04-08T08:32:04.620Z,44.30
2018-04-08T08:34:32.919Z,44.30
2018-04-08T08:37:00.489Z,45.00
2018-04-08T08:39:28.041Z,44.00
2018-04-08T08:41:55.602Z,44.60
2018-04-08T08:44:23.161Z,43.20
2018-04-08T08:46:50.827Z,43.20
2018-04-08T08:49:18.367Z,43.10
2018-04-08T08:51:45.935Z,43.50
2018-04-08T08:54:13.582Z,43.30
2018-04-08T08:56:41.909Z,43.10
2018-04-08T08:59:09.473Z,43.10
2018-04-08T09:01:37.018Z,44.30
2018-04-08T09:04:04.591Z,44.20
2018-04-08T10:28:30.104Z,40.20
2018-04-08T10:30:57.664Z,40.10
2018-04-08T10:33:25.219Z,40.30
2018-04-08T10:35:52.811Z,39.60
2018-04-08T10:38:21.172Z,40.10
2018-04-08T10:40:48.720Z,40.00
2018-04-08T10:43:16.291Z,41.10
2018-04-08T10:45:44.619Z,39.00
2018-04-08T10:48:12.306Z,39.00
2018-04-08T10:50:39.858Z,39.20
2018-04-08T10:53:07.422Z,40.00
2018-04-08T10:55:34.997Z,39.80
2018-04-08T10:58:02.557Z,39.80
2018-04-08T11:00:30.113Z,39.70
2018-04-08T11:02:58.690Z,38.70
2018-04-08T11:05:26.259Z,38.80
2018-04-08T11:07:53.820Z,38.90
2018-04-08T11:10:21.354Z,38.30
2018-04-08T11:12:48.980Z,38.90
2018-04-08T11:15:17.326Z,39.50
2018-04-08T11:17:44.877Z,39.50
2018-04-08T11:20:12.475Z,39.50
2018-04-08T11:22:41.021Z,38.90
2018-04-08T11:25:08.666Z,40.00
2018-04-08T11:27:36.225Z,40.70
2018-04-08T11:30:03.786Z,40.70
2018-04-08T11:32:31.350Z,41.30
2018-04-08T11:34:58.921Z,40.40
2018-04-08T11:37:26.575Z,39.50
2018-04-08T11:39:54.134Z,39.50
2018-04-08T11:42:21.716Z,39.90
2018-04-08T11:44:49.311Z,40.40
2018-04-08T11:47:17.639Z,41.80
2018-04-08T11:49:46.267Z,41.80
2018-04-08T11:52:14.368Z,42.30
2018-04-08T11:54:41.986Z,42.40
2018-04-08T11:57:09.616Z,42.00
2018-04-08T11:59:37.179Z,41.80
2018-04-08T12:02:04.766Z,40.90
2018-04-08T12:04:32.341Z,41.30
2018-04-08T12:06:59.888Z,41.60
2018-04-08T12:09:27.458Z,41.50
2018-04-08T12:11:54.989Z,41.70
2018-04-08T12:14:22.583Z,41.70
2018-04-08T12:16:50.906Z,41.20
2018-04-08T12:19:18.469Z,41.20
2018-04-08T12:21:46.007Z,41.00
2018-04-08T12:24:14.355Z,40.30
2018-04-08T12:26:46.494Z,40.30
2018-04-08T12:29:14.098Z,39.60
2018-04-08T12:31:41.634Z,41.40
2018-04-08T12:34:09.212Z,40.70
2018-04-08T12:36:36.788Z,41.10
2018-04-08T12:39:04.376Z,40.60
2018-04-08T12:41:32.364Z,40.70
2018-04-08T12:43:59.951Z,41.00
2018-04-08T12:46:27.520Z,40.20
2018-04-08T12:48:55.097Z,41.10
2018-04-08T12:51:23.410Z,40.70
2018-04-08T12:53:50.993Z,40.60
2018-04-08T12:56:18.543Z,40.30
2018-04-08T12:58:46.194Z,40.10
2018-04-08T13:01:13.727Z,41.10
2018-04-08T13:03:42.056Z,40.30
2018-04-08T13:06:09.598Z,40.10
2018-04-08T13:08:37.189Z,40.60
2018-04-08T13:11:04.722Z,40.40
2018-04-08T13:13:32.292Z,40.20
2018-04-08T13:15:59.847Z,40.70
2018-04-08T13:18:27.402Z,40.50
2018-04-08T13:20:54.951Z,40.10
2018-04-08T13:23:22.595Z,39.70
2018-04-08T13:25:50.172Z,40.60
2018-04-08T13:28:17.806Z,40.10
2018-04-08T13:30:46.190Z,40.10
2018-04-08T13:33:14.506Z,39.50
2018-04-08T13:35:42.066Z,39.40
2018-04-08T13:38:09.606Z,40.30
2018-04-08T13:40:37.177Z,39.70
2018-04-08T13:43:04.773Z,40.50
2018-04-08T13:45:32.375Z,40.50
2018-04-08T13:48:01.668Z,39.50
2018-04-08T13:50:30.003Z,39.50
2018-04-08T13:52:57.545Z,39.50
2018-04-08T13:55:25.126Z,39.70
2018-04-08T13:57:52.689Z,40.50
2018-04-08T14:00:20.254Z,39.40
2018-04-08T14:02:47.850Z,39.80
2018-04-08T14:05:16.181Z,39.20
2018-04-08T14:07:43.732Z,39.20
2018-04-08T14:10:11.356Z,39.30
2018-04-08T14:12:38.897Z,39.10
2018-04-08T14:15:06.469Z,39.30
2018-04-08T14:17:34.010Z,39.60
2018-04-08T14:20:01.673Z,39.70
2018-04-08T14:22:29.212Z,39.90
2018-04-08T14:24:56.807Z,39.10
2018-04-08T14:27:24.359Z,40.20
2018-04-08T14:29:51.927Z,39.70
2018-04-08T14:32:19.545Z,39.20
2018-04-08T14:34:47.147Z,39.00
2018-04-08T14:37:14.891Z,40.10
2018-04-08T14:39:42.467Z,38.60
2018-04-08T14:42:10.063Z,39.10
2018-04-08T14:44:37.622Z,39.20
2018-04-08T14:47:05.926Z,38.70
2018-04-08T14:49:33.505Z,38.60
2018-04-08T14:52:01.117Z,38.90
2018-04-08T14:54:28.703Z,39.20
2018-04-08T14:56:56.258Z,39.50
2018-04-08T14:59:23.824Z,39.40
2018-04-08T15:01:51.410Z,39.50
2018-04-08T15:04:19.003Z,39.60
2018-04-08T15:06:46.570Z,39.70
2018-04-08T15:09:14.877Z,40.20
2018-04-08T15:11:42.501Z,40.10
2018-04-08T15:14:10.038Z,40.00
2018-04-08T15:16:38.370Z,40.80
2018-04-08T15:19:06.059Z,40.70
2018-04-08T15:21:34.402Z,40.30
2018-04-08T15:24:01.992Z,40.30
2018-04-08T15:26:29.590Z,39.20
2018-04-08T15:28:57.405Z,40.00
2018-04-08T15:31:25.005Z,40.80
2018-04-08T15:33:53.319Z,40.20
2018-04-08T15:36:21.647Z,40.70
2018-04-08T15:38:49.194Z,40.70
2018-04-08T15:41:16.762Z,40.60
2018-04-08T15:43:44.327Z,40.40
2018-04-08T15:46:11.987Z,40.40
2018-04-08T15:48:39.600Z,40.10
2018-04-08T15:51:07.125Z,40.30
2018-04-08T15:53:34.666Z,39.10
2018-04-08T15:56:02.288Z,39.10
2018-04-08T15:58:30.602Z,40.10
2018-04-08T16:00:58.180Z,40.00
2018-04-08T16:03:25.744Z,40.10
2018-04-08T16:05:54.113Z,38.10
2018-04-08T16:08:21.692Z,38.10
2018-04-08T16:10:49.287Z,40.00
2018-04-08T16:13:17.609Z,38.70
2018-04-08T16:15:45.204Z,38.80
2018-04-08T16:18:12.774Z,38.60
2018-04-08T16:20:40.326Z,38.80
2018-04-08T16:23:08.077Z,39.60
2018-04-08T16:25:35.713Z,39.80
2018-04-08T16:28:03.375Z,39.50
2018-04-08T16:30:30.937Z,39.90
2018-04-08T16:32:58.643Z,40.00
2018-04-08T16:35:26.212Z,39.80
2018-04-08T16:37:53.811Z,40.10
2018-04-08T16:40:21.357Z,39.60
2018-04-08T16:42:48.993Z,39.80
2018-04-08T16:45:16.592Z,40.20
2018-04-08T16:47:44.203Z,40.40
2018-04-08T16:50:12.545Z,40.40
2018-04-08T16:52:40.147Z,40.40
2018-04-08T16:55:07.764Z,40.20
2018-04-08T16:57:35.359Z,40.20
2018-04-08T17:00:03.032Z,40.30
2018-04-08T17:02:30.651Z,40.50
2018-04-08T17:04:58.227Z,40.90
2018-04-08T17:07:25.834Z,41.30
2018-04-08T17:09:54.150Z,42.20
2018-04-08T17:12:21.718Z,42.20
2018-04-08T17:14:49.277Z,41.80
2018-04-08T17:17:16.854Z,42.20
2018-04-08T17:19:44.399Z,42.30
2018-04-08T17:22:11.980Z,42.40
2018-04-08T17:24:39.570Z,42.40
2018-04-08T17:27:07.143Z,42.80
2018-04-08T17:29:34.794Z,42.80
2018-04-08T17:32:03.163Z,42.90
2018-04-08T17:34:30.815Z,42.90
2018-04-08T17:37:02.053Z,43.30
2018-04-08T17:39:29.686Z,43.60
2018-04-08T17:41:57.226Z,43.60
2018-04-08T17:44:24.789Z,44.20
2018-04-08T17:46:53.106Z,44.90
2018-04-08T17:49:20.700Z,44.90
2018-04-08T17:51:49.005Z,45.70
2018-04-08T17:54:16.698Z,45.60
2018-04-08T17:56:44.358Z,46.00
2018-04-08T17:59:12.111Z,46.50
2018-04-08T18:01:39.724Z,46.50
2018-04-08T18:04:08.842Z,47.30
2018-04-08T18:06:37.178Z,48.10
2018-04-08T18:09:04.767Z,47.90
2018-04-08T18:11:32.373Z,48.50
2018-04-08T18:14:00.045Z,48.70
2018-04-08T18:16:27.602Z,49.30
2018-04-08T18:18:55.155Z,49.80
2018-04-08T18:21:22.760Z,50.20
2018-04-08T18:23:50.319Z,50.20
2018-04-08T18:26:17.904Z,50.60
2018-04-08T18:28:46.322Z,51.00
2018-04-08T18:31:13.883Z,51.00
2018-04-08T18:33:41.457Z,52.10
2018-04-08T18:36:09.187Z,51.80
2018-04-08T18:38:36.745Z,52.00
2018-04-08T18:41:04.326Z,52.50
2018-04-08T18:43:31.992Z,52.70
2018-04-08T18:45:59.574Z,53.20
2018-04-08T18:48:27.137Z,53.20
2018-04-08T18:50:54.764Z,53.70
2018-04-08T18:53:22.330Z,53.60
2018-04-08T18:55:49.981Z,53.60
2018-04-08T18:58:17.515Z,53.80
2018-04-08T19:00:45.833Z,54.30
2018-04-08T19:03:13.406Z,54.20
2018-04-08T19:05:40.960Z,54.50
2018-04-08T19:08:08.551Z,54.70
2018-04-08T19:10:36.106Z,54.90
2018-04-08T19:13:03.686Z,55.00
2018-04-08T19:15:31.228Z,54.70
2018-04-08T19:18:02.596Z,55.10
2018-04-08T19:20:30.135Z,55.30
2018-04-08T19:22:57.723Z,55.60
2018-04-08T19:25:26.030Z,55.90
2018-04-08T19:27:53.610Z,55.80
2018-04-08T19:30:23.756Z,55.80
2018-04-08T19:32:51.329Z,56.10
2018-04-08T19:35:18.863Z,56.50
2018-04-08T19:37:46.473Z,56.70
2018-04-08T19:40:14.032Z,57.40
2018-04-08T19:42:41.633Z,57.80
2018-04-08T19:45:09.207Z,58.20
2018-04-08T19:47:36.785Z,58.20
2018-04-08T19:50:04.343Z,58.60
2018-04-08T19:52:33.183Z,58.60
2018-04-08T19:55:00.741Z,58.60
2018-04-08T19:57:28.297Z,58.70
2018-04-08T19:59:56.609Z,58.70
2018-04-08T20:02:24.158Z,58.70
2018-04-08T20:04:51.762Z,58.80
2018-04-08T20:07:19.314Z,59.10
2018-04-08T20:09:46.935Z,59.30
2018-04-08T20:12:14.537Z,59.70
2018-04-08T20:14:42.143Z,59.40
2018-04-08T20:17:09.719Z,59.80
2018-04-08T20:19:37.326Z,60.20
2018-04-08T20:22:04.949Z,60.70
2018-04-08T20:24:32.560Z,61.20
2018-04-08T20:27:00.918Z,62.90
2018-04-08T20:29:28.484Z,62.80
2018-04-08T20:31:56.028Z,63.40
2018-04-08T20:34:23.643Z,63.50
2018-04-08T20:36:51.212Z,64.30
2018-04-08T20:39:18.819Z,64.40
2018-04-08T20:41:46.374Z,64.30
2018-04-08T20:44:13.941Z,64.70
2018-04-08T20:46:42.265Z,64.90
2018-04-08T20:49:10.661Z,64.60
2018-04-08T20:51:38.961Z,64.90
2018-04-08T20:54:07.547Z,64.80
2018-04-08T20:56:35.198Z,65.10
2018-04-08T20:59:02.765Z,65.40
2018-04-08T21:01:31.310Z,65.90
2018-04-08T21:03:59.694Z,67.00
2018-04-08T21:06:28.003Z,67.00
2018-04-08T21:08:55.613Z,67.00
2018-04-08T21:11:23.158Z,66.80
2018-04-08T21:13:50.777Z,67.30
2018-04-08T21:16:18.337Z,67.60
2018-04-08T21:18:45.936Z,67.50
2018-04-08T21:21:13.478Z,68.10
2018-04-08T21:23:41.086Z,68.50
2018-04-08T21:26:08.713Z,69.00
2018-04-08T21:28:36.277Z,69.00
2018-04-08T21:31:03.835Z,69.70
2018-04-08T21:33:31.395Z,70.40
2018-04-08T21:35:58.954Z,70.50
2018-04-08T21:38:26.523Z,71.30
2018-04-08T21:40:54.119Z,71.70
2018-04-08T21:43:22.413Z,72.50
2018-04-08T21:45:50.000Z,72.50
2018-04-08T21:48:17.575Z,72.50
2018-04-08T21:50:45.138Z,72.40
2018-04-08T21:53:12.698Z,72.60
2018-04-08T21:55:40.271Z,73.30
2018-04-08T21:58:07.817Z,73.30
2018-04-08T22:00:35.373Z,74.00
2018-04-08T22:03:02.923Z,73.80
2018-04-08T22:05:30.485Z,73.50
2018-04-08T22:07:58.056Z,73.70
2018-04-08T22:10:25.612Z,73.40
2018-04-08T22:12:53.172Z,73.20
2018-04-08T22:15:20.729Z,73.10
2018-04-08T22:17:48.276Z,72.90
2018-04-08T22:20:15.892Z,73.10
2018-04-08T22:22:44.199Z,73.30
2018-04-08T22:25:11.768Z,73.20
2018-04-08T22:27:40.248Z,73.70
2018-04-08T22:30:07.825Z,74.20
2018-04-08T22:32:35.391Z,74.10
2018-04-08T22:35:02.961Z,73.90
2018-04-08T22:37:31.287Z,74.20
2018-04-08T22:39:59.626Z,74.30
2018-04-08T22:42:27.202Z,74.40
2018-04-08T22:44:54.796Z,75.50
2018-04-08T22:47:22.340Z,75.00
2018-04-08T22:49:50.688Z,75.80
2018-04-08T22:52:18.237Z,75.70
2018-04-08T22:54:45.791Z,76.20
2018-04-08T22:57:13.367Z,77.60
2018-04-08T22:59:40.943Z,77.40
2018-04-08T23:02:08.504Z,78.10
2018-04-08T23:04:36.053Z,78.10
2018-04-08T23:07:03.616Z,78.60
2018-04-08T23:09:31.241Z,78.10
2018-04-08T23:11:58.815Z,78.30
2018-04-08T23:14:26.370Z,78.30
2018-04-08T23:16:54.206Z,78.80
2018-04-08T23:19:21.746Z,78.70
2018-04-08T23:21:50.047Z,79.40
2018-04-08T23:24:17.625Z,79.30
2018-04-08T23:26:45.242Z,80.10
2018-04-08T23:29:13.577Z,80.50
2018-04-08T23:31:41.121Z,80.40
2018-04-08T23:34:08.873Z,80.50
2018-04-08T23:36:36.654Z,80.50
2018-04-08T23:39:04.234Z,78.90
2018-04-08T23:41:31.788Z,78.20
2018-04-08T23:43:59.370Z,78.10
2018-04-08T23:46:26.911Z,77.50
2018-04-08T23:48:54.507Z,75.60
2018-04-08T23:51:22.821Z,76.40
2018-04-08T23:53:50.393Z,77.30
2018-04-08T23:56:17.946Z,78.00
2018-04-08T23:58:45.551Z,78.70
